Dai 8 Tokuharu — JD3710 — position and weather

sailwx.info

Track history (hours):
 
Tides and Currents Weather Stations Pressure Air Temp Water Temp Dewpoint Dewpoint Depression Visibility Wind Speed Wind Dir Waves Ship Positions

Dai 8 Tokuharu

Last reported at 2017-Nov-19 05:13 UTC. Time now 2017-Nov-21 20:56 UTC.
Position N 34°08' E 134°56'.

Length 82 m; draft 5 m.

Type: Cargo ship. MMSI: 431005534.

Date/timePositionNaut miles runAvg speedWind from/ knotsBaromVisibWave heightAir tempDewpointWater temp
2017-Nov-19 05:13N 34°08' E 134°56'413.2
2017-Nov-19 04:56N 34°12' E 134°57'713.7
2017-Nov-19 04:25N 34°19' E 134°59'611.9
2017-Nov-19 03:56N 34°24' E 135°00'612.9
2017-Nov-19 03:28N 34°30' E 135°02'511.7
2017-Nov-19 03:00N 34°36' E 135°03'712.2
2017-Nov-19 02:28N 34°37' E 134°55'612.2
2017-Nov-19 02:00N 34°40' E 134°50'0 0.0
2017-Nov-18 15:38N 34°40' E 134°50'4 9.1
2017-Nov-18 15:09N 34°37' E 134°54'1 9.2
2017-Nov-18 15:00N 34°37' E 134°55'510.0
2017-Nov-18 14:29N 34°37' E 135°02'4 9.2
2017-Nov-18 14:00N 34°34' E 135°05'511.0
2017-Nov-18 13:31N 34°28' E 135°03'510.4
2017-Nov-18 13:00N 34°23' E 135°02'510.0
2017-Nov-18 12:29N 34°18' E 134°60'510.1
2017-Nov-18 11:59N 34°13' E 134°59'510.5
2017-Nov-18 11:29N 34°08' E 134°59'4 0.2
2017-Nov-17 13:35N 34°12' E 134°57'112.9
2017-Nov-17 13:29N 34°13' E 134°57'812.3
2017-Nov-17 12:49N 34°21' E 134°59'511.8
2017-Nov-17 12:26N 34°26' E 135°00'511.7
2017-Nov-17 12:00N 34°31' E 135°02'510.5
2017-Nov-17 11:30N 34°36' E 135°03'5 9.2
2017-Nov-17 10:58N 34°36' E 134°57'510.4
2017-Nov-17 10:30N 34°39' E 134°51'9 1.2
2017-Nov-17 03:23N 34°37' E 135°02'3 8.8
2017-Nov-17 02:59N 34°34' E 135°05'611.4
2017-Nov-17 02:30N 34°29' E 135°04'1511.3
2017-Nov-17 01:12N 34°15' E 134°59'211.8
2017-Nov-17 01:00N 34°12' E 134°59'611.5
2017-Nov-17 00:30N 34°07' E 134°58'7 0.3
2017-Nov-16 00:35N 34°14' E 134°58'412.2
2017-Nov-16 00:17N 34°18' E 134°59'411.2
2017-Nov-15 23:57N 34°21' E 134°60'512.3
2017-Nov-15 23:31N 34°27' E 135°01'611.7
2017-Nov-15 23:00N 34°33' E 135°02'4 8.5
2017-Nov-15 22:29N 34°37' E 135°01'510.2
2017-Nov-15 21:59N 34°37' E 134°55'510.7
2017-Nov-15 21:29N 34°40' E 134°50'10 0.8
2017-Nov-15 08:40N 34°37' E 135°02'213.0
2017-Nov-15 08:30N 34°36' E 135°04'611.5
2017-Nov-15 08:00N 34°37' E 135°11'5 9.3
2017-Nov-15 07:30N 34°39' E 135°16'3 6.3
2017-Nov-15 07:00N 34°42' E 135°14'0 0.0
2017-Nov-15 06:30N 34°42' E 135°14'0 0.0
2017-Nov-15 06:00N 34°42' E 135°14'0 0.0
2017-Nov-15 05:30N 34°42' E 135°14'0 0.0
2017-Nov-15 05:00N 34°42' E 135°14'0 0.0
2017-Nov-15 04:30N 34°42' E 135°14'0 0.0
2017-Nov-15 04:00N 34°42' E 135°14'0 0.0
2017-Nov-15 03:30N 34°42' E 135°14'0 0.0
2017-Nov-15 03:00N 34°42' E 135°14'0 0.0
2017-Nov-15 02:30N 34°42' E 135°14'0 0.0
2017-Nov-15 02:00N 34°42' E 135°14'0 0.0
2017-Nov-15 01:30N 34°42' E 135°14'0 0.0
2017-Nov-15 01:00N 34°42' E 135°14'0 0.0
2017-Nov-15 00:30N 34°42' E 135°14'0 0.0
2017-Nov-15 00:00N 34°42' E 135°14'0 0.0
2017-Nov-14 23:30N 34°42' E 135°14'0 0.0
2017-Nov-14 23:00N 34°42' E 135°14'3 6.2
2017-Nov-14 22:30N 34°39' E 135°16'2 4.7
2017-Nov-14 22:00N 34°37' E 135°16'0 0.1
2017-Nov-14 21:30N 34°37' E 135°16'0 0.0
2017-Nov-14 21:00N 34°37' E 135°16'0 0.0
2017-Nov-14 20:30N 34°37' E 135°16'0 0.0
2017-Nov-14 20:00N 34°37' E 135°16'0 0.0
2017-Nov-14 19:30N 34°37' E 135°16'0 0.0
2017-Nov-14 19:00N 34°37' E 135°16'0 0.1
2017-Nov-14 18:30N 34°37' E 135°16'611.5
2017-Nov-14 18:00N 34°36' E 135°09'612.6
2017-Nov-14 17:30N 34°37' E 135°02'612.7
2017-Nov-14 17:00N 34°37' E 134°54'4 0.2
2017-Nov-13 23:27N 34°38' E 134°59'511.7
2017-Nov-13 23:00N 34°35' E 135°05'611.4
2017-Nov-13 22:30N 34°30' E 135°04'612.1
2017-Nov-13 22:00N 34°24' E 135°02'15 0.7
2017-Nov-12 23:27N 34°09' E 134°57'612.6
2017-Nov-12 22:59N 34°15' E 134°59'712.4
2017-Nov-12 22:24N 34°22' E 134°59'512.1
2017-Nov-12 22:00N 34°27' E 135°01'611.7
2017-Nov-12 21:29N 34°33' E 135°02'5 9.5
2017-Nov-12 21:00N 34°37' E 135°01'510.5
2017-Nov-12 20:30N 34°37' E 134°54'1 0.1
2017-Nov-12 12:59N 34°37' E 134°55'5 9.9
2017-Nov-12 12:27N 34°37' E 135°01'4 9.5
2017-Nov-12 12:00N 34°35' E 135°05'611.3
2017-Nov-12 11:30N 34°29' E 135°03'611.1
2017-Nov-12 11:00N 34°24' E 135°02'810.8
2017-Nov-12 10:17N 34°16' E 134°59'311.3
2017-Nov-12 09:59N 34°13' E 134°59'511.1
2017-Nov-12 09:30N 34°08' E 134°59'5 0.2
2017-Nov-11 11:45N 34°13' E 134°57'413.5
2017-Nov-11 11:29N 34°16' E 134°58'612.3
2017-Nov-11 10:58N 34°22' E 134°60'612.0
2017-Nov-11 10:30N 34°28' E 135°01'612.1
2017-Nov-11 10:00N 34°34' E 135°03'6 9.6
2017-Nov-11 09:24N 34°36' E 134°57'512.4
2017-Nov-11 09:00N 34°39' E 134°51'2 0.2
2017-Nov-10 21:15N 34°41' E 134°51'1 0.1
2017-Nov-10 11:14N 34°41' E 134°50'8 9.0
2017-Nov-10 10:22N 34°38' E 134°58'4 9.1
2017-Nov-10 09:58N 34°37' E 135°03'510.5
2017-Nov-10 09:31N 34°37' E 135°08'611.6
2017-Nov-10 09:01N 34°38' E 135°15'4 8.4
2017-Nov-10 08:30N 34°42' E 135°14'0 0.3
2017-Nov-10 08:00N 34°42' E 135°14'0 0.0
2017-Nov-10 07:31N 34°42' E 135°14'0 0.0
2017-Nov-10 07:00N 34°42' E 135°14'0 0.0
2017-Nov-10 06:31N 34°42' E 135°14'0 0.0
2017-Nov-10 06:00N 34°42' E 135°14'0 0.0
2017-Nov-10 05:31N 34°42' E 135°14'0 0.0
2017-Nov-10 05:01N 34°42' E 135°14'0 0.0
2017-Nov-10 04:31N 34°42' E 135°14'0 0.0
2017-Nov-10 04:01N 34°42' E 135°14'0 0.0
2017-Nov-10 03:31N 34°42' E 135°14'0 0.0
2017-Nov-10 03:00N 34°42' E 135°14'0 0.0
2017-Nov-10 02:30N 34°42' E 135°14'0 0.0
2017-Nov-10 02:00N 34°42' E 135°14'0 0.0
2017-Nov-10 01:31N 34°42' E 135°14'0 0.0
2017-Nov-10 01:00N 34°42' E 135°14'0 0.0
2017-Nov-10 00:30N 34°42' E 135°14'0 0.0
2017-Nov-10 00:01N 34°42' E 135°14'0 0.0
2017-Nov-09 23:30N 34°42' E 135°14'0 0.0
2017-Nov-09 23:00N 34°42' E 135°14'0 0.0
2017-Nov-09 22:30N 34°42' E 135°14'0 0.0
2017-Nov-09 22:01N 34°42' E 135°14'0 0.0
2017-Nov-09 21:30N 34°42' E 135°14'0 0.0
2017-Nov-09 21:01N 34°42' E 135°14'0 0.0
2017-Nov-09 20:31N 34°42' E 135°14'0 0.0
2017-Nov-09 20:01N 34°42' E 135°14'0 0.0
2017-Nov-09 19:30N 34°42' E 135°14'0 0.0
2017-Nov-09 19:01N 34°42' E 135°14'0 0.0
2017-Nov-09 18:30N 34°42' E 135°14'0 0.0
2017-Nov-09 18:01N 34°42' E 135°14'0 0.0
2017-Nov-09 17:30N 34°42' E 135°14'0 0.0
2017-Nov-09 17:00N 34°42' E 135°14'0 0.0
2017-Nov-09 16:31N 34°42' E 135°14'0 0.0
2017-Nov-09 16:01N 34°42' E 135°14'0 0.0
2017-Nov-09 15:31N 34°42' E 135°14'0 0.0
2017-Nov-09 15:00N 34°42' E 135°14'0 0.0
2017-Nov-09 14:31N 34°42' E 135°14'0 0.0
2017-Nov-09 14:00N 34°42' E 135°14'0 0.0
2017-Nov-09 13:31N 34°42' E 135°14'0 0.0
2017-Nov-09 13:01N 34°42' E 135°14'0 0.0
2017-Nov-09 12:31N 34°42' E 135°14'0 0.0
2017-Nov-09 12:00N 34°42' E 135°14'0 0.0
2017-Nov-09 11:31N 34°42' E 135°14'0 0.0
2017-Nov-09 11:01N 34°42' E 135°14'0 0.0
2017-Nov-09 10:31N 34°42' E 135°14'0 0.0
2017-Nov-09 10:00N 34°42' E 135°14'0 0.0
2017-Nov-09 09:31N 34°42' E 135°14'0 0.0
2017-Nov-09 09:00N 34°42' E 135°14'0 0.0
2017-Nov-09 08:30N 34°42' E 135°14'0 0.0
2017-Nov-09 08:01N 34°42' E 135°14'0 0.0
2017-Nov-09 07:31N 34°42' E 135°14'0 0.0
2017-Nov-09 07:01N 34°42' E 135°14'0 0.0
2017-Nov-09 06:31N 34°42' E 135°14'0 0.0
2017-Nov-09 06:01N 34°42' E 135°14'0 0.0
2017-Nov-09 05:31N 34°42' E 135°14'  
Track history (hours):
 
Tides and Currents Weather Stations Pressure Air Temp Water Temp Dewpoint Dewpoint Depression Visibility Wind Speed Wind Dir Waves Ship Positions

Dai 8 Tokuharu

Last reported at 2017-Nov-19 05:13 UTC. Time now 2017-Nov-21 20:56 UTC.
Position N 34°08' E 134°56'.

Length 82 m; draft 5 m.

Type: Cargo ship. MMSI: 431005534.

Date/timePositionNaut miles runAvg speedWind from/ knotsBaromVisibWave heightAir tempDewpointWater temp
2017-Nov-19 05:13N 34°08' E 134°56'413.2
2017-Nov-19 04:56N 34°12' E 134°57'713.7
2017-Nov-19 04:25N 34°19' E 134°59'611.9
2017-Nov-19 03:56N 34°24' E 135°00'612.9
2017-Nov-19 03:28N 34°30' E 135°02'511.7
2017-Nov-19 03:00N 34°36' E 135°03'712.2
2017-Nov-19 02:28N 34°37' E 134°55'612.2
2017-Nov-19 02:00N 34°40' E 134°50'0 0.0
2017-Nov-18 15:38N 34°40' E 134°50'4 9.1
2017-Nov-18 15:09N 34°37' E 134°54'1 9.2
2017-Nov-18 15:00N 34°37' E 134°55'510.0
2017-Nov-18 14:29N 34°37' E 135°02'4 9.2
2017-Nov-18 14:00N 34°34' E 135°05'511.0
2017-Nov-18 13:31N 34°28' E 135°03'510.4
2017-Nov-18 13:00N 34°23' E 135°02'510.0
2017-Nov-18 12:29N 34°18' E 134°60'510.1
2017-Nov-18 11:59N 34°13' E 134°59'510.5
2017-Nov-18 11:29N 34°08' E 134°59'4 0.2
2017-Nov-17 13:35N 34°12' E 134°57'112.9
2017-Nov-17 13:29N 34°13' E 134°57'812.3
2017-Nov-17 12:49N 34°21' E 134°59'511.8
2017-Nov-17 12:26N 34°26' E 135°00'511.7
2017-Nov-17 12:00N 34°31' E 135°02'510.5
2017-Nov-17 11:30N 34°36' E 135°03'5 9.2
2017-Nov-17 10:58N 34°36' E 134°57'510.4
2017-Nov-17 10:30N 34°39' E 134°51'9 1.2
2017-Nov-17 03:23N 34°37' E 135°02'3 8.8
2017-Nov-17 02:59N 34°34' E 135°05'611.4
2017-Nov-17 02:30N 34°29' E 135°04'1511.3
2017-Nov-17 01:12N 34°15' E 134°59'211.8
2017-Nov-17 01:00N 34°12' E 134°59'611.5
2017-Nov-17 00:30N 34°07' E 134°58'7 0.3
2017-Nov-16 00:35N 34°14' E 134°58'412.2
2017-Nov-16 00:17N 34°18' E 134°59'411.2
2017-Nov-15 23:57N 34°21' E 134°60'512.3
2017-Nov-15 23:31N 34°27' E 135°01'611.7
2017-Nov-15 23:00N 34°33' E 135°02'4 8.5
2017-Nov-15 22:29N 34°37' E 135°01'510.2
2017-Nov-15 21:59N 34°37' E 134°55'510.7
2017-Nov-15 21:29N 34°40' E 134°50'10 0.8
2017-Nov-15 08:40N 34°37' E 135°02'213.0
2017-Nov-15 08:30N 34°36' E 135°04'611.5
2017-Nov-15 08:00N 34°37' E 135°11'5 9.3
2017-Nov-15 07:30N 34°39' E 135°16'3 6.3
2017-Nov-15 07:00N 34°42' E 135°14'0 0.0
2017-Nov-15 06:30N 34°42' E 135°14'0 0.0
2017-Nov-15 06:00N 34°42' E 135°14'0 0.0
2017-Nov-15 05:30N 34°42' E 135°14'0 0.0
2017-Nov-15 05:00N 34°42' E 135°14'0 0.0
2017-Nov-15 04:30N 34°42' E 135°14'0 0.0
2017-Nov-15 04:00N 34°42' E 135°14'0 0.0
2017-Nov-15 03:30N 34°42' E 135°14'0 0.0
2017-Nov-15 03:00N 34°42' E 135°14'0 0.0
2017-Nov-15 02:30N 34°42' E 135°14'0 0.0
2017-Nov-15 02:00N 34°42' E 135°14'0 0.0
2017-Nov-15 01:30N 34°42' E 135°14'0 0.0
2017-Nov-15 01:00N 34°42' E 135°14'0 0.0
2017-Nov-15 00:30N 34°42' E 135°14'0 0.0
2017-Nov-15 00:00N 34°42' E 135°14'0 0.0
2017-Nov-14 23:30N 34°42' E 135°14'0 0.0
2017-Nov-14 23:00N 34°42' E 135°14'3 6.2
2017-Nov-14 22:30N 34°39' E 135°16'2 4.7
2017-Nov-14 22:00N 34°37' E 135°16'0 0.1
2017-Nov-14 21:30N 34°37' E 135°16'0 0.0
2017-Nov-14 21:00N 34°37' E 135°16'0 0.0
2017-Nov-14 20:30N 34°37' E 135°16'0 0.0
2017-Nov-14 20:00N 34°37' E 135°16'0 0.0
2017-Nov-14 19:30N 34°37' E 135°16'0 0.0
2017-Nov-14 19:00N 34°37' E 135°16'0 0.1
2017-Nov-14 18:30N 34°37' E 135°16'611.5
2017-Nov-14 18:00N 34°36' E 135°09'612.6
2017-Nov-14 17:30N 34°37' E 135°02'612.7
2017-Nov-14 17:00N 34°37' E 134°54'4 0.2
2017-Nov-13 23:27N 34°38' E 134°59'511.7
2017-Nov-13 23:00N 34°35' E 135°05'611.4
2017-Nov-13 22:30N 34°30' E 135°04'612.1
2017-Nov-13 22:00N 34°24' E 135°02'15 0.7
2017-Nov-12 23:27N 34°09' E 134°57'612.6
2017-Nov-12 22:59N 34°15' E 134°59'712.4
2017-Nov-12 22:24N 34°22' E 134°59'512.1
2017-Nov-12 22:00N 34°27' E 135°01'611.7
2017-Nov-12 21:29N 34°33' E 135°02'5 9.5
2017-Nov-12 21:00N 34°37' E 135°01'510.5
2017-Nov-12 20:30N 34°37' E 134°54'1 0.1
2017-Nov-12 12:59N 34°37' E 134°55'5 9.9
2017-Nov-12 12:27N 34°37' E 135°01'4 9.5
2017-Nov-12 12:00N 34°35' E 135°05'611.3
2017-Nov-12 11:30N 34°29' E 135°03'611.1
2017-Nov-12 11:00N 34°24' E 135°02'810.8
2017-Nov-12 10:17N 34°16' E 134°59'311.3
2017-Nov-12 09:59N 34°13' E 134°59'511.1
2017-Nov-12 09:30N 34°08' E 134°59'5 0.2
2017-Nov-11 11:45N 34°13' E 134°57'413.5
2017-Nov-11 11:29N 34°16' E 134°58'612.3
2017-Nov-11 10:58N 34°22' E 134°60'612.0
2017-Nov-11 10:30N 34°28' E 135°01'612.1
2017-Nov-11 10:00N 34°34' E 135°03'6 9.6
2017-Nov-11 09:24N 34°36' E 134°57'512.4
2017-Nov-11 09:00N 34°39' E 134°51'2 0.2
2017-Nov-10 21:15N 34°41' E 134°51'1 0.1
2017-Nov-10 11:14N 34°41' E 134°50'8 9.0
2017-Nov-10 10:22N 34°38' E 134°58'4 9.1
2017-Nov-10 09:58N 34°37' E 135°03'510.5
2017-Nov-10 09:31N 34°37' E 135°08'611.6
2017-Nov-10 09:01N 34°38' E 135°15'4 8.4
2017-Nov-10 08:30N 34°42' E 135°14'0 0.3
2017-Nov-10 08:00N 34°42' E 135°14'0 0.0
2017-Nov-10 07:31N 34°42' E 135°14'0 0.0
2017-Nov-10 07:00N 34°42' E 135°14'0 0.0
2017-Nov-10 06:31N 34°42' E 135°14'0 0.0
2017-Nov-10 06:00N 34°42' E 135°14'0 0.0
2017-Nov-10 05:31N 34°42' E 135°14'0 0.0
2017-Nov-10 05:01N 34°42' E 135°14'0 0.0
2017-Nov-10 04:31N 34°42' E 135°14'0 0.0
2017-Nov-10 04:01N 34°42' E 135°14'0 0.0
2017-Nov-10 03:31N 34°42' E 135°14'0 0.0
2017-Nov-10 03:00N 34°42' E 135°14'0 0.0
2017-Nov-10 02:30N 34°42' E 135°14'0 0.0
2017-Nov-10 02:00N 34°42' E 135°14'0 0.0
2017-Nov-10 01:31N 34°42' E 135°14'0 0.0
2017-Nov-10 01:00N 34°42' E 135°14'0 0.0
2017-Nov-10 00:30N 34°42' E 135°14'0 0.0
2017-Nov-10 00:01N 34°42' E 135°14'0 0.0
2017-Nov-09 23:30N 34°42' E 135°14'0 0.0
2017-Nov-09 23:00N 34°42' E 135°14'0 0.0
2017-Nov-09 22:30N 34°42' E 135°14'0 0.0
2017-Nov-09 22:01N 34°42' E 135°14'0 0.0
2017-Nov-09 21:30N 34°42' E 135°14'0 0.0
2017-Nov-09 21:01N 34°42' E 135°14'0 0.0
2017-Nov-09 20:31N 34°42' E 135°14'0 0.0
2017-Nov-09 20:01N 34°42' E 135°14'0 0.0
2017-Nov-09 19:30N 34°42' E 135°14'0 0.0
2017-Nov-09 19:01N 34°42' E 135°14'0 0.0
2017-Nov-09 18:30N 34°42' E 135°14'0 0.0
2017-Nov-09 18:01N 34°42' E 135°14'0 0.0
2017-Nov-09 17:30N 34°42' E 135°14'0 0.0
2017-Nov-09 17:00N 34°42' E 135°14'0 0.0
2017-Nov-09 16:31N 34°42' E 135°14'0 0.0
2017-Nov-09 16:01N 34°42' E 135°14'0 0.0
2017-Nov-09 15:31N 34°42' E 135°14'0 0.0
2017-Nov-09 15:00N 34°42' E 135°14'0 0.0
2017-Nov-09 14:31N 34°42' E 135°14'0 0.0
2017-Nov-09 14:00N 34°42' E 135°14'0 0.0
2017-Nov-09 13:31N 34°42' E 135°14'0 0.0
2017-Nov-09 13:01N 34°42' E 135°14'0 0.0
2017-Nov-09 12:31N 34°42' E 135°14'0 0.0
2017-Nov-09 12:00N 34°42' E 135°14'0 0.0
2017-Nov-09 11:31N 34°42' E 135°14'0 0.0
2017-Nov-09 11:01N 34°42' E 135°14'0 0.0
2017-Nov-09 10:31N 34°42' E 135°14'0 0.0
2017-Nov-09 10:00N 34°42' E 135°14'0 0.0
2017-Nov-09 09:31N 34°42' E 135°14'0 0.0
2017-Nov-09 09:00N 34°42' E 135°14'0 0.0
2017-Nov-09 08:30N 34°42' E 135°14'0 0.0
2017-Nov-09 08:01N 34°42' E 135°14'0 0.0
2017-Nov-09 07:31N 34°42' E 135°14'0 0.0
2017-Nov-09 07:01N 34°42' E 135°14'0 0.0
2017-Nov-09 06:31N 34°42' E 135°14'0 0.0
2017-Nov-09 06:01N 34°42' E 135°14'0 0.0
2017-Nov-09 05:31N 34°42' E 135°14'  

Dump ship's entire track history